Time;durP1;ratioP1;P1;durP2;ratioP2;P2;SDS_P1;SDS_P2;PMS_P1;PMS_P2;Temp;Humidity;BMP_temperature;BMP_pressure;BME280_temperature;BME280_humidity;BME280_pressure;Samples;Min_cycle;Max_cycle;Signal;HPM_P1;HPM_P2
2023/01/25 00:00:44;;;;;;;34.08;20.90;;;;;;;;;;5005734;28;20170;-46
2023/01/25 00:03:09;;;;;;;33.13;19.85;;;;;;;;;;5004314;28;20037;-47
2023/01/25 00:05:34;;;;;;;31.02;18.77;;;;;;;;;;5006177;28;20069;-48
2023/01/25 00:08:00;;;;;;;30.80;18.65;;;;;;;;;;5005506;28;20034;-43
2023/01/25 00:10:25;;;;;;;29.17;18.35;;;;;;;;;;5006169;28;20030;-43
2023/01/25 00:12:50;;;;;;;29.83;18.52;;;;;;;;;;5003731;28;20103;-43
2023/01/25 00:15:16;;;;;;;29.08;17.85;;;;;;;;;;5005886;28;20037;-42
2023/01/25 00:17:41;;;;;;;27.92;17.13;;;;;;;;;;5004906;28;20034;-43
2023/01/25 00:20:08;;;;;;;26.08;16.25;;;;;;;;;;5003831;28;20030;-43
2023/01/25 00:22:33;;;;;;;27.10;17.10;;;;;;;;;;5032471;28;20129;-43
2023/01/25 00:24:59;;;;;;;29.15;16.92;;;;;;;;;;5006525;28;20113;-42
2023/01/25 00:27:24;;;;;;;27.02;16.15;;;;;;;;;;5006878;28;20494;-44
2023/01/25 00:29:50;;;;;;;30.40;16.98;;;;;;;;;;5007269;28;20110;-41
2023/01/25 00:32:15;;;;;;;25.58;16.15;;;;;;;;;;5004763;28;20041;-45
2023/01/25 00:34:46;;;;;;;26.63;16.15;;;;;;;;;;5007329;28;20025;-43
2023/01/25 00:37:23;;;;;;;22.25;15.27;;;;;;;;;;5003819;28;20057;-43
2023/01/25 00:39:49;;;;;;;23.95;15.48;;;;;;;;;;5001890;28;20050;-44
2023/01/25 00:42:16;;;;;;;28.30;17.30;;;;;;;;;;5003096;28;20052;-42
2023/01/25 00:44:42;;;;;;;26.20;16.52;;;;;;;;;;5006343;28;20034;-43
2023/01/25 00:47:11;;;;;;;28.25;17.33;;;;;;;;;;5006831;28;20029;-45
2023/01/25 00:49:38;;;;;;;28.67;17.75;;;;;;;;;;4999155;28;20049;-45
2023/01/25 00:52:04;;;;;;;30.02;17.15;;;;;;;;;;5005025;28;20394;-47
2023/01/25 00:54:29;;;;;;;29.85;17.70;;;;;;;;;;5003945;28;20038;-44
2023/01/25 00:56:55;;;;;;;30.60;16.75;;;;;;;;;;5005496;28;20041;-43
2023/01/25 00:59:21;;;;;;;25.73;16.70;;;;;;;;;;5005512;28;20044;-43
2023/01/25 01:01:47;;;;;;;26.20;17.10;;;;;;;;;;5004499;28;20427;-43
2023/01/25 01:04:13;;;;;;;29.90;17.73;;;;;;;;;;5003437;28;20517;-45
2023/01/25 01:06:39;;;;;;;26.45;16.42;;;;;;;;;;5005705;28;20030;-43
2023/01/25 01:09:06;;;;;;;30.30;17.70;;;;;;;;;;5008746;28;20042;-45
2023/01/25 01:11:32;;;;;;;32.35;16.98;;;;;;;;;;5008562;28;20717;-46
2023/01/25 01:13:58;;;;;;;26.98;16.95;;;;;;;;;;5009992;28;20049;-42
2023/01/25 01:16:24;;;;;;;25.90;17.60;;;;;;;;;;5009648;28;20495;-48
2023/01/25 01:18:50;;;;;;;34.17;17.30;;;;;;;;;;5005716;28;20655;-46
2023/01/25 01:21:16;;;;;;;27.00;16.92;;;;;;;;;;5009609;28;20030;-43
2023/01/25 01:23:41;;;;;;;27.58;16.55;;;;;;;;;;5007491;28;20128;-43
2023/01/25 01:26:10;;;;;;;26.75;16.38;;;;;;;;;;5008520;28;20053;-43
2023/01/25 01:28:38;;;;;;;23.75;14.65;;;;;;;;;;5008381;28;20125;-44
2023/01/25 01:31:06;;;;;;;24.13;14.93;;;;;;;;;;5008602;28;20574;-45
2023/01/25 01:33:31;;;;;;;27.73;15.15;;;;;;;;;;5006452;28;20092;-46
2023/01/25 01:35:57;;;;;;;26.38;14.93;;;;;;;;;;5006585;28;20364;-45
2023/01/25 01:38:23;;;;;;;27.48;15.43;;;;;;;;;;5007932;28;20044;-43
2023/01/25 01:40:49;;;;;;;26.88;15.13;;;;;;;;;;5007558;28;20113;-46
2023/01/25 01:43:19;;;;;;;25.48;15.95;;;;;;;;;;5007756;28;20034;-43
2023/01/25 01:45:45;;;;;;;22.48;15.57;;;;;;;;;;5007471;28;20037;-43
2023/01/25 01:48:34;;;;;;;26.05;16.08;;;;;;;;;;5008443;28;20132;-48
2023/01/25 01:51:07;;;;;;;29.20;15.52;;;;;;;;;;5007448;28;20372;-44
2023/01/25 01:53:33;;;;;;;27.75;17.70;;;;;;;;;;5006533;28;20418;-45
2023/01/25 01:56:03;;;;;;;30.75;16.10;;;;;;;;;;5006646;28;20034;-43
2023/01/25 01:58:30;;;;;;;23.75;15.35;;;;;;;;;;5007934;28;20461;-42
2023/01/25 02:00:56;;;;;;;23.38;14.82;;;;;;;;;;5007449;28;20483;-45
2023/01/25 02:03:22;;;;;;;23.08;14.38;;;;;;;;;;5006377;28;20048;-47
2023/01/25 02:05:55;;;;;;;19.27;12.90;;;;;;;;;;5008892;28;20038;-42
2023/01/25 02:08:23;;;;;;;28.05;14.85;;;;;;;;;;5008635;28;20866;-45
2023/01/25 02:10:49;;;;;;;21.80;13.85;;;;;;;;;;5007750;28;20061;-42
2023/01/25 02:13:16;;;;;;;26.85;14.73;;;;;;;;;;5007201;28;22665;-42
2023/01/25 02:15:48;;;;;;;23.02;14.13;;;;;;;;;;5006175;28;20026;-44
2023/01/25 02:18:14;;;;;;;24.00;14.85;;;;;;;;;;5006634;28;20045;-43
2023/01/25 02:20:45;;;;;;;22.17;14.55;;;;;;;;;;5003591;28;20036;-43
2023/01/25 02:23:26;;;;;;;21.20;14.15;;;;;;;;;;5006778;28;20027;-45
2023/01/25 02:25:53;;;;;;;27.60;14.98;;;;;;;;;;5006759;28;20034;-46
2023/01/25 02:28:24;;;;;;;22.42;14.75;;;;;;;;;;5007144;28;20035;-44
2023/01/25 02:30:50;;;;;;;26.92;14.77;;;;;;;;;;5006356;28;20060;-45
2023/01/25 02:33:16;;;;;;;21.98;14.82;;;;;;;;;;5005477;28;20030;-45
2023/01/25 02:35:49;;;;;;;24.73;15.70;;;;;;;;;;5007193;28;20458;-44
2023/01/25 02:38:17;;;;;;;23.70;14.48;;;;;;;;;;5006070;28;20399;-43
2023/01/25 02:40:56;;;;;;;21.30;14.00;;;;;;;;;;5008231;28;20033;-46
2023/01/25 02:43:26;;;;;;;25.33;14.98;;;;;;;;;;5006960;28;20410;-43
2023/01/25 02:45:59;;;;;;;23.70;14.15;;;;;;;;;;5007111;28;20507;-42
2023/01/25 02:48:25;;;;;;;20.55;13.45;;;;;;;;;;5003060;28;20038;-45
2023/01/25 02:50:50;;;;;;;20.85;13.85;;;;;;;;;;5020895;28;20092;-43
2023/01/25 02:53:16;;;;;;;23.52;15.10;;;;;;;;;;5007441;28;20042;-43
2023/01/25 02:55:41;;;;;;;22.10;13.85;;;;;;;;;;5006595;28;20032;-43
2023/01/25 02:58:07;;;;;;;19.83;13.60;;;;;;;;;;5006358;28;20042;-44
2023/01/25 03:00:32;;;;;;;23.55;13.73;;;;;;;;;;5005472;28;20037;-43
2023/01/25 03:02:58;;;;;;;20.48;14.48;;;;;;;;;;5006819;28;20226;-43
2023/01/25 03:05:23;;;;;;;28.52;15.73;;;;;;;;;;5008026;28;20116;-43
2023/01/25 03:07:49;;;;;;;22.25;15.00;;;;;;;;;;5003731;28;20038;-46
2023/01/25 03:10:14;;;;;;;23.63;14.60;;;;;;;;;;5006425;28;20036;-48
2023/01/25 03:12:39;;;;;;;22.55;15.20;;;;;;;;;;5004874;28;20407;-43
2023/01/25 03:15:06;;;;;;;24.70;14.98;;;;;;;;;;5007198;28;20029;-43
2023/01/25 03:17:31;;;;;;;21.55;14.32;;;;;;;;;;5004739;28;20064;-42
2023/01/25 03:19:57;;;;;;;25.30;15.27;;;;;;;;;;5004852;28;20026;-44
2023/01/25 03:22:22;;;;;;;24.48;15.85;;;;;;;;;;5006269;28;20423;-44
2023/01/25 03:24:48;;;;;;;22.60;14.95;;;;;;;;;;5005717;28;20387;-45
2023/01/25 03:27:15;;;;;;;23.75;14.52;;;;;;;;;;5006060;28;20029;-44
2023/01/25 03:29:41;;;;;;;24.80;15.20;;;;;;;;;;5009193;28;20065;-43
2023/01/25 03:32:06;;;;;;;22.77;15.02;;;;;;;;;;5007529;28;20455;-42
2023/01/25 03:34:32;;;;;;;24.25;15.15;;;;;;;;;;5005723;28;20506;-46
2023/01/25 03:36:57;;;;;;;25.95;14.57;;;;;;;;;;5007743;28;20034;-43
2023/01/25 03:39:22;;;;;;;23.95;15.02;;;;;;;;;;5005758;28;20490;-45
2023/01/25 03:41:48;;;;;;;25.92;14.70;;;;;;;;;;5009305;28;20096;-43
2023/01/25 03:44:13;;;;;;;20.58;13.70;;;;;;;;;;5005273;28;20403;-43
2023/01/25 03:46:40;;;;;;;20.70;14.38;;;;;;;;;;5006346;28;20037;-50
2023/01/25 03:49:05;;;;;;;20.45;13.25;;;;;;;;;;5004976;28;20034;-46
2023/01/25 03:51:32;;;;;;;22.55;13.43;;;;;;;;;;5003932;28;20049;-42
2023/01/25 03:53:57;;;;;;;21.05;13.60;;;;;;;;;;5005176;28;20487;-43
2023/01/25 03:56:23;;;;;;;23.70;13.50;;;;;;;;;;5004820;28;20033;-43
2023/01/25 03:58:48;;;;;;;21.35;12.93;;;;;;;;;;5020017;28;20092;-43
2023/01/25 04:01:14;;;;;;;21.60;13.10;;;;;;;;;;5007137;28;20030;-43
2023/01/25 04:03:39;;;;;;;26.15;14.55;;;;;;;;;;5007155;28;20060;-46
2023/01/25 04:06:05;;;;;;;21.92;13.90;;;;;;;;;;5007090;28;20029;-44
2023/01/25 04:08:31;;;;;;;25.38;14.15;;;;;;;;;;5006191;28;20069;-44
2023/01/25 04:11:00;;;;;;;23.98;14.70;;;;;;;;;;5006280;28;20069;-43
2023/01/25 04:13:27;;;;;;;19.42;12.10;;;;;;;;;;5001500;28;20045;-43
2023/01/25 04:15:53;;;;;;;20.77;13.13;;;;;;;;;;5005015;28;20884;-43
2023/01/25 04:18:19;;;;;;;21.00;11.88;;;;;;;;;;5004381;28;20049;-43
2023/01/25 04:20:44;;;;;;;17.98;12.05;;;;;;;;;;5004361;28;20021;-45
2023/01/25 04:23:10;;;;;;;21.58;11.82;;;;;;;;;;5004043;28;20398;-43
2023/01/25 04:25:37;;;;;;;18.90;12.43;;;;;;;;;;5006432;28;20033;-44
2023/01/25 04:28:03;;;;;;;20.60;12.85;;;;;;;;;;5005688;28;20045;-48
2023/01/25 04:30:28;;;;;;;17.38;12.68;;;;;;;;;;5003993;28;21048;-43
2023/01/25 04:32:53;;;;;;;18.52;12.65;;;;;;;;;;5005169;28;20049;-44
2023/01/25 04:35:19;;;;;;;18.83;12.35;;;;;;;;;;5004304;28;20035;-44
2023/01/25 04:37:55;;;;;;;19.77;13.50;;;;;;;;;;5005319;28;20038;-43
2023/01/25 04:40:21;;;;;;;23.83;13.52;;;;;;;;;;5004358;28;20069;-46
2023/01/25 04:42:46;;;;;;;19.90;13.77;;;;;;;;;;5005182;28;20076;-46
2023/01/25 04:45:12;;;;;;;25.60;14.07;;;;;;;;;;5004864;28;20022;-45
2023/01/25 04:47:37;;;;;;;19.67;13.32;;;;;;;;;;5003957;28;20053;-46
2023/01/25 04:50:02;;;;;;;25.55;14.40;;;;;;;;;;5005596;28;20030;-45
2023/01/25 04:52:28;;;;;;;25.90;14.38;;;;;;;;;;5002936;28;20029;-43
2023/01/25 04:54:53;;;;;;;23.48;14.60;;;;;;;;;;5006382;28;20033;-44
2023/01/25 04:57:19;;;;;;;20.83;13.52;;;;;;;;;;5004550;28;20125;-48
2023/01/25 04:59:44;;;;;;;23.30;13.85;;;;;;;;;;5002400;28;20462;-44
2023/01/25 05:02:10;;;;;;;17.48;12.07;;;;;;;;;;5004294;28;20057;-44
2023/01/25 05:04:35;;;;;;;22.88;13.25;;;;;;;;;;5005660;28;20072;-43
2023/01/25 05:07:01;;;;;;;27.60;15.10;;;;;;;;;;5004213;28;20481;-43
2023/01/25 05:09:26;;;;;;;23.52;13.90;;;;;;;;;;5003530;28;20042;-43
2023/01/25 05:11:52;;;;;;;21.75;14.10;;;;;;;;;;5007318;28;20116;-47
2023/01/25 05:14:17;;;;;;;23.20;13.68;;;;;;;;;;5005919;28;20039;-43
2023/01/25 05:16:42;;;;;;;23.60;13.30;;;;;;;;;;5008250;28;20120;-44
2023/01/25 05:19:08;;;;;;;22.00;14.23;;;;;;;;;;5005709;28;20042;-46
2023/01/25 05:24:18;;;;;;;25.77;14.18;;;;;;;;;;5002241;28;20052;-44
2023/01/25 05:26:59;;;;;;;19.65;13.02;;;;;;;;;;5006627;28;20022;-45
2023/01/25 05:29:25;;;;;;;15.40;10.98;;;;;;;;;;5002448;28;20058;-45
2023/01/25 05:31:50;;;;;;;22.40;11.55;;;;;;;;;;5007261;28;20104;-50
2023/01/25 05:34:15;;;;;;;16.23;10.80;;;;;;;;;;5002957;28;20509;-46
2023/01/25 05:36:41;;;;;;;18.40;11.88;;;;;;;;;;5003023;28;20037;-43
2023/01/25 05:39:07;;;;;;;19.30;11.07;;;;;;;;;;5003366;28;20049;-46
2023/01/25 05:41:33;;;;;;;16.15;11.35;;;;;;;;;;5003772;28;20028;-44
2023/01/25 05:43:58;;;;;;;18.00;11.30;;;;;;;;;;5004022;28;20050;-43
2023/01/25 05:46:26;;;;;;;18.08;10.90;;;;;;;;;;5003796;28;20030;-44
2023/01/25 05:48:52;;;;;;;17.73;10.13;;;;;;;;;;5003153;28;20057;-46
2023/01/25 05:51:17;;;;;;;19.63;10.20;;;;;;;;;;5002994;28;20030;-45
2023/01/25 05:53:42;;;;;;;16.33;11.45;;;;;;;;;;5003670;28;20400;-44
2023/01/25 05:56:11;;;;;;;18.65;11.73;;;;;;;;;;5009158;28;20045;-44
2023/01/25 05:58:38;;;;;;;24.50;12.13;;;;;;;;;;5006591;28;20418;-46
2023/01/25 06:01:05;;;;;;;17.45;11.18;;;;;;;;;;5008598;28;20041;-45
2023/01/25 06:03:31;;;;;;;16.55;11.18;;;;;;;;;;5007599;28;20163;-43
2023/01/25 06:05:57;;;;;;;17.33;11.65;;;;;;;;;;5010383;28;20034;-44
2023/01/25 06:08:23;;;;;;;21.00;13.52;;;;;;;;;;5006480;28;20042;-43
2023/01/25 06:10:49;;;;;;;22.77;14.70;;;;;;;;;;5006815;28;20045;-43
2023/01/25 06:13:14;;;;;;;20.60;13.68;;;;;;;;;;5006462;28;20046;-43
2023/01/25 06:15:40;;;;;;;30.48;13.85;;;;;;;;;;5011473;28;20026;-43
2023/01/25 06:18:05;;;;;;;23.65;13.35;;;;;;;;;;5006734;28;20100;-44
2023/01/25 06:20:32;;;;;;;21.55;12.63;;;;;;;;;;5011103;28;20561;-47
2023/01/25 06:22:58;;;;;;;22.73;12.13;;;;;;;;;;5004135;28;20041;-44
2023/01/25 06:25:23;;;;;;;23.67;12.13;;;;;;;;;;5010059;28;20044;-45
2023/01/25 06:27:48;;;;;;;20.05;12.52;;;;;;;;;;5008737;28;20092;-48
2023/01/25 06:30:14;;;;;;;27.20;13.90;;;;;;;;;;5007654;28;20046;-46
2023/01/25 06:32:39;;;;;;;25.92;15.80;;;;;;;;;;5007399;28;20047;-44
2023/01/25 06:35:05;;;;;;;23.00;12.43;;;;;;;;;;5007340;28;20500;-45
2023/01/25 06:37:30;;;;;;;18.95;12.13;;;;;;;;;;5004992;28;20040;-47
2023/01/25 06:39:56;;;;;;;28.90;13.90;;;;;;;;;;5005130;28;20097;-43
2023/01/25 06:42:23;;;;;;;22.35;13.02;;;;;;;;;;5007709;28;20115;-45
2023/01/25 06:44:48;;;;;;;40.72;18.67;;;;;;;;;;5006582;28;20027;-44
2023/01/25 06:47:14;;;;;;;84.05;32.03;;;;;;;;;;5006973;28;20089;-46
2023/01/25 06:49:39;;;;;;;33.40;18.23;;;;;;;;;;5007080;28;20129;-44
2023/01/25 06:52:04;;;;;;;23.77;16.00;;;;;;;;;;5007607;28;20489;-44
2023/01/25 06:54:30;;;;;;;30.52;18.42;;;;;;;;;;5005424;28;20042;-46
2023/01/25 06:56:55;;;;;;;91.95;36.80;;;;;;;;;;5004042;28;20034;-44
2023/01/25 06:59:21;;;;;;;171.10;62.10;;;;;;;;;;5008221;28;20050;-44
2023/01/25 07:01:46;;;;;;;90.10;38.33;;;;;;;;;;5007326;28;20026;-44
2023/01/25 07:04:11;;;;;;;45.03;22.63;;;;;;;;;;5003164;28;20129;-49
2023/01/25 07:06:37;;;;;;;29.73;18.33;;;;;;;;;;5009850;28;20490;-44
2023/01/25 07:09:05;;;;;;;28.52;17.15;;;;;;;;;;5006183;28;20038;-44
2023/01/25 07:11:31;;;;;;;31.17;17.75;;;;;;;;;;5002653;28;20441;-44
2023/01/25 07:13:56;;;;;;;25.20;16.40;;;;;;;;;;5009217;28;20038;-47
2023/01/25 07:16:21;;;;;;;25.15;16.38;;;;;;;;;;5006745;28;20032;-44
2023/01/25 07:18:47;;;;;;;32.42;18.15;;;;;;;;;;5008280;28;20491;-44
2023/01/25 07:21:22;;;;;;;32.72;19.25;;;;;;;;;;5005773;28;20038;-44
2023/01/25 07:23:48;;;;;;;27.08;16.92;;;;;;;;;;5004137;28;20045;-44
2023/01/25 07:26:18;;;;;;;25.15;16.50;;;;;;;;;;5004966;28;20639;-45
2023/01/25 07:28:45;;;;;;;25.40;16.30;;;;;;;;;;5006193;28;20049;-47
2023/01/25 07:31:11;;;;;;;24.20;15.82;;;;;;;;;;5006338;28;20053;-45
2023/01/25 07:33:36;;;;;;;26.45;15.98;;;;;;;;;;5006467;28;20049;-43
2023/01/25 07:36:06;;;;;;;26.70;14.55;;;;;;;;;;5006729;28;20036;-48
2023/01/25 07:38:32;;;;;;;26.65;15.60;;;;;;;;;;5005365;28;20572;-48
2023/01/25 07:40:58;;;;;;;66.93;27.67;;;;;;;;;;5006577;28;20065;-49
2023/01/25 07:43:24;;;;;;;63.08;26.30;;;;;;;;;;5003495;28;20042;-50
2023/01/25 07:45:49;;;;;;;31.92;18.02;;;;;;;;;;5007316;28;20046;-44
2023/01/25 07:48:17;;;;;;;34.30;16.83;;;;;;;;;;5006679;28;20041;-43
2023/01/25 07:50:48;;;;;;;27.73;15.50;;;;;;;;;;5006057;28;20100;-48
2023/01/25 07:53:17;;;;;;;28.02;16.35;;;;;;;;;;5003357;28;20045;-47
2023/01/25 07:55:42;;;;;;;28.38;15.52;;;;;;;;;;5007700;28;20097;-47
2023/01/25 07:58:10;;;;;;;22.02;15.00;;;;;;;;;;5003642;28;20501;-44
2023/01/25 08:00:35;;;;;;;19.20;13.55;;;;;;;;;;5005674;28;20041;-47
2023/01/25 08:03:01;;;;;;;24.30;14.68;;;;;;;;;;5007658;28;20487;-44
2023/01/25 08:05:26;;;;;;;25.38;15.35;;;;;;;;;;5006139;28;20029;-45
2023/01/25 08:07:52;;;;;;;37.13;21.60;;;;;;;;;;5004416;28;20321;-44
2023/01/25 08:10:17;;;;;;;45.85;23.65;;;;;;;;;;5005873;28;20034;-48
2023/01/25 08:12:45;;;;;;;47.00;25.98;;;;;;;;;;5006005;28;20426;-44
2023/01/25 08:15:12;;;;;;;52.17;31.20;;;;;;;;;;5006909;28;20509;-45
2023/01/25 08:17:38;;;;;;;40.20;25.98;;;;;;;;;;5003783;28;20100;-45
2023/01/25 08:20:05;;;;;;;37.90;19.33;;;;;;;;;;5005757;28;20025;-44
2023/01/25 08:22:30;;;;;;;30.80;17.23;;;;;;;;;;5002862;28;20424;-45
2023/01/25 08:24:55;;;;;;;31.25;17.60;;;;;;;;;;5004063;28;20109;-47
2023/01/25 08:27:21;;;;;;;21.50;15.07;;;;;;;;;;5005661;28;20031;-48
2023/01/25 08:29:49;;;;;;;25.05;14.50;;;;;;;;;;5007188;28;20049;-45
2023/01/25 08:32:15;;;;;;;27.65;15.95;;;;;;;;;;5004369;28;20034;-48
2023/01/25 08:34:40;;;;;;;23.95;14.88;;;;;;;;;;5005489;28;20556;-44
2023/01/25 08:37:05;;;;;;;26.15;16.15;;;;;;;;;;5004553;28;20022;-45
2023/01/25 08:39:31;;;;;;;27.77;16.50;;;;;;;;;;5005718;28;20042;-46
2023/01/25 08:41:56;;;;;;;26.02;16.33;;;;;;;;;;5004338;28;20467;-45
2023/01/25 08:44:23;;;;;;;27.65;17.55;;;;;;;;;;5003998;28;20049;-44
2023/01/25 08:46:48;;;;;;;29.88;16.52;;;;;;;;;;5005703;28;20088;-47
2023/01/25 08:49:14;;;;;;;23.40;15.75;;;;;;;;;;5005556;28;20042;-45
2023/01/25 08:51:39;;;;;;;24.20;14.73;;;;;;;;;;5003056;28;20032;-43
2023/01/25 08:54:06;;;;;;;19.85;14.15;;;;;;;;;;5005106;28;20472;-48
2023/01/25 08:56:31;;;;;;;30.23;15.25;;;;;;;;;;5005573;28;20057;-44
2023/01/25 08:58:57;;;;;;;25.60;14.80;;;;;;;;;;5004235;28;20870;-44
2023/01/25 09:01:22;;;;;;;457.75;188.10;;;;;;;;;;5005870;28;20022;-48
2023/01/25 09:03:49;;;;;;;51.70;28.00;;;;;;;;;;5003827;28;20081;-47
2023/01/25 09:06:16;;;;;;;378.08;167.13;;;;;;;;;;5003575;28;20033;-49
2023/01/25 09:08:42;;;;;;;120.45;54.28;;;;;;;;;;5035623;28;20034;-47
2023/01/25 09:11:10;;;;;;;74.53;34.50;;;;;;;;;;5005540;28;20406;-44
2023/01/25 09:13:36;;;;;;;111.57;47.80;;;;;;;;;;5004586;28;20038;-46
2023/01/25 09:16:08;;;;;;;302.35;117.47;;;;;;;;;;5004854;28;20033;-48
2023/01/25 09:18:35;;;;;;;;;;;;;;;;;;5004124;28;20057;-46
2023/01/25 09:21:08;;;;;;;32.70;18.05;;;;;;;;;;5005747;28;19917;-48
2023/01/25 09:23:34;;;;;;;21.13;14.63;;;;;;;;;;5004634;28;20395;-48
2023/01/25 09:26:00;;;;;;;29.17;16.23;;;;;;;;;;5004554;28;20030;-45
2023/01/25 09:28:28;;;;;;;21.00;15.00;;;;;;;;;;5005332;28;20038;-45
2023/01/25 09:31:05;;;;;;;27.02;15.95;;;;;;;;;;5009049;28;20049;-45
2023/01/25 09:33:34;;;;;;;78.55;32.10;;;;;;;;;;5004872;28;20037;-48
2023/01/25 09:36:00;;;;;;;29.73;16.58;;;;;;;;;;5007655;28;20047;-46
2023/01/25 09:38:26;;;;;;;160.05;63.83;;;;;;;;;;5009276;28;20061;-44
2023/01/25 09:41:08;;;;;;;91.93;37.38;;;;;;;;;;5006184;28;20972;-44
2023/01/25 09:43:39;;;;;;;20.00;14.00;;;;;;;;;;5007777;28;20037;-44
2023/01/25 09:46:24;;;;;;;17.15;12.30;;;;;;;;;;5005247;28;20029;-44
2023/01/25 09:49:16;;;;;;;20.88;13.07;;;;;;;;;;5005587;28;20046;-46
2023/01/25 09:52:04;;;;;;;23.77;13.77;;;;;;;;;;5008944;28;20034;-46
2023/01/25 09:54:36;;;;;;;19.60;13.00;;;;;;;;;;5006044;28;20052;-48
2023/01/25 09:57:02;;;;;;;17.80;13.13;;;;;;;;;;5006735;28;20042;-44
2023/01/25 09:59:29;;;;;;;17.70;12.63;;;;;;;;;;5005459;28;20096;-44
2023/01/25 10:01:55;;;;;;;16.52;11.88;;;;;;;;;;5007876;28;20104;-46
2023/01/25 10:04:24;;;;;;;16.77;12.50;;;;;;;;;;5003774;28;20042;-45
2023/01/25 10:06:57;;;;;;;19.13;12.75;;;;;;;;;;5006244;28;20069;-46
2023/01/25 10:09:49;;;;;;;18.60;12.88;;;;;;;;;;5006142;28;20053;-44
2023/01/25 10:12:22;;;;;;;18.17;12.93;;;;;;;;;;5006649;28;20530;-45
2023/01/25 10:14:49;;;;;;;21.15;13.88;;;;;;;;;;5006810;28;20042;-44
2023/01/25 10:17:39;;;;;;;19.50;12.35;;;;;;;;;;5006502;28;20037;-47
2023/01/25 10:20:11;;;;;;;18.55;12.50;;;;;;;;;;5007033;28;20075;-46
2023/01/25 10:22:49;;;;;;;18.98;12.90;;;;;;;;;;5006979;28;20126;-44
2023/01/25 10:25:24;;;;;;;23.17;12.82;;;;;;;;;;5004391;28;20105;-44
2023/01/25 10:28:06;;;;;;;17.05;11.98;;;;;;;;;;5005743;28;20757;-42
2023/01/25 10:30:46;;;;;;;;;;;;;;;;;;5007118;28;20045;-47
2023/01/25 10:33:18;;;;;;;20.85;11.85;;;;;;;;;;5021279;28;20408;-42
2023/01/25 10:35:46;;;;;;;18.05;12.60;;;;;;;;;;5007146;28;20348;-48
2023/01/25 10:38:17;;;;;;;17.10;12.80;;;;;;;;;;5007400;28;20049;-41
2023/01/25 10:40:52;;;;;;;19.95;12.43;;;;;;;;;;5008118;28;20022;-41
2023/01/25 10:43:20;;;;;;;19.30;12.30;;;;;;;;;;5003176;28;20038;-42
2023/01/25 10:45:45;;;;;;;17.75;11.77;;;;;;;;;;5007109;28;20034;-47
2023/01/25 10:48:21;;;;;;;17.25;12.10;;;;;;;;;;5008427;28;20851;-47
2023/01/25 10:50:50;;;;;;;17.77;13.13;;;;;;;;;;5005939;28;20066;-44
2023/01/25 10:53:38;;;;;;;19.60;12.50;;;;;;;;;;5006118;28;20124;-44
2023/01/25 10:56:09;;;;;;;14.45;10.93;;;;;;;;;;5007134;28;20042;-44
2023/01/25 10:58:41;;;;;;;18.67;10.93;;;;;;;;;;5006842;28;20495;-47
2023/01/25 11:01:09;;;;;;;17.33;12.87;;;;;;;;;;5006869;28;20475;-44
2023/01/25 11:03:37;;;;;;;20.10;13.15;;;;;;;;;;5004351;28;20094;-43
2023/01/25 11:06:04;;;;;;;21.42;13.55;;;;;;;;;;5007854;28;20026;-42
2023/01/25 11:08:30;;;;;;;17.58;12.82;;;;;;;;;;5006135;28;20156;-43
2023/01/25 11:10:56;;;;;;;20.15;12.48;;;;;;;;;;5006262;28;20167;-46
2023/01/25 11:13:27;;;;;;;18.48;11.10;;;;;;;;;;5007650;28;20124;-44
2023/01/25 11:16:12;;;;;;;16.73;12.25;;;;;;;;;;5005567;28;20467;-44
2023/01/25 11:18:48;;;;;;;16.15;11.32;;;;;;;;;;5007129;28;20034;-45
2023/01/25 11:21:18;;;;;;;16.75;11.23;;;;;;;;;;5005603;28;20113;-48
2023/01/25 11:23:59;;;;;;;16.80;10.43;;;;;;;;;;5005327;28;20120;-45
2023/01/25 11:26:25;;;;;;;13.35;10.18;;;;;;;;;;5006875;28;20026;-49
2023/01/25 11:29:06;;;;;;;14.98;10.23;;;;;;;;;;5010762;28;20165;-45
2023/01/25 11:31:32;;;;;;;18.30;11.27;;;;;;;;;;5007036;28;20061;-46
2023/01/25 11:33:57;;;;;;;14.63;10.75;;;;;;;;;;5005747;28;20073;-44
2023/01/25 11:36:34;;;;;;;14.63;11.73;;;;;;;;;;5007255;28;20025;-48
2023/01/25 11:39:47;;;;;;;18.90;12.15;;;;;;;;;;5004825;28;20046;-47
2023/01/25 11:42:50;;;;;;;18.73;10.60;;;;;;;;;;5004718;28;20084;-47
2023/01/25 11:45:51;;;;;;;;;;;;;;;;;;5005725;28;20034;-47
2023/01/25 11:48:22;;;;;;;15.93;10.02;;;;;;;;;;4943493;29;20473;-50
2023/01/25 11:51:06;;;;;;;12.80;9.65;;;;;;;;;;4945743;28;20095;-44
2023/01/25 11:53:59;;;;;;;19.60;9.85;;;;;;;;;;4942933;28;20039;-44
2023/01/25 11:56:27;;;;;;;20.83;10.85;;;;;;;;;;4941843;28;20040;-47
2023/01/25 11:59:13;;;;;;;16.45;10.45;;;;;;;;;;4944428;28;20054;-44
2023/01/25 12:02:16;;;;;;;14.57;9.90;;;;;;;;;;4944347;28;20043;-44
2023/01/25 12:04:44;;;;;;;18.58;9.95;;;;;;;;;;4944294;28;20043;-44
2023/01/25 12:07:53;;;;;;;12.98;9.60;;;;;;;;;;4944027;28;20384;-44
2023/01/25 12:10:27;;;;;;;13.90;10.07;;;;;;;;;;4942477;28;20145;-44
2023/01/25 12:12:55;;;;;;;13.82;9.70;;;;;;;;;;4943935;28;20039;-46
2023/01/25 12:15:50;;;;;;;12.52;9.32;;;;;;;;;;4942913;28;20047;-47
2023/01/25 12:18:31;;;;;;;13.52;9.93;;;;;;;;;;4943792;28;20083;-46
2023/01/25 12:21:04;;;;;;;10.77;8.73;;;;;;;;;;4943638;28;20027;-45
2023/01/25 12:24:07;;;;;;;12.63;8.43;;;;;;;;;;5004240;28;20030;-49
2023/01/25 12:26:38;;;;;;;9.65;8.52;;;;;;;;;;5002817;28;20110;-48
2023/01/25 12:29:17;;;;;;;13.60;8.85;;;;;;;;;;5001894;28;20054;-44
2023/01/25 12:31:50;;;;;;;10.88;8.07;;;;;;;;;;5004138;28;20112;-45
2023/01/25 12:34:26;;;;;;;9.75;7.60;;;;;;;;;;5005271;28;20046;-45
2023/01/25 12:36:52;;;;;;;9.55;7.30;;;;;;;;;;5004695;28;20541;-44
2023/01/25 12:39:17;;;;;;;10.15;7.65;;;;;;;;;;5005782;28;20049;-42
2023/01/25 12:42:10;;;;;;;9.07;7.20;;;;;;;;;;5002946;28;20490;-42
2023/01/25 12:44:53;;;;;;;11.25;8.43;;;;;;;;;;5001290;28;20042;-45
2023/01/25 12:47:42;;;;;;;12.15;8.30;;;;;;;;;;5003697;28;20041;-49
2023/01/25 12:50:19;;;;;;;11.68;8.18;;;;;;;;;;5005681;28;20026;-44
2023/01/25 12:53:22;;;;;;;12.45;9.45;;;;;;;;;;5004103;28;20490;-46
2023/01/25 12:55:49;;;;;;;13.20;9.23;;;;;;;;;;5005342;28;20703;-45
2023/01/25 12:58:34;;;;;;;10.63;9.00;;;;;;;;;;5005746;28;20040;-50
2023/01/25 13:01:07;;;;;;;9.77;8.05;;;;;;;;;;5001639;28;20593;-43
2023/01/25 13:03:40;;;;;;;10.27;8.38;;;;;;;;;;5005904;28;20042;-45
2023/01/25 13:06:11;;;;;;;11.52;8.95;;;;;;;;;;5008644;28;20022;-44
2023/01/25 13:08:41;;;;;;;13.95;9.30;;;;;;;;;;5005589;28;20114;-42
2023/01/25 13:11:09;;;;;;;18.73;10.98;;;;;;;;;;5008494;28;20065;-42
2023/01/25 13:13:34;;;;;;;12.05;9.40;;;;;;;;;;5009179;28;20049;-43
2023/01/25 13:16:29;;;;;;;13.50;10.68;;;;;;;;;;5007403;28;20055;-50
2023/01/25 13:18:55;;;;;;;18.83;11.23;;;;;;;;;;5009286;28;20049;-45
2023/01/25 13:21:36;;;;;;;17.45;11.63;;;;;;;;;;5007003;28;20109;-45
2023/01/25 13:24:24;;;;;;;19.88;11.10;;;;;;;;;;5008542;28;20429;-46
2023/01/25 13:26:52;;;;;;;15.82;10.00;;;;;;;;;;5007939;28;20045;-43
2023/01/25 13:29:45;;;;;;;16.42;10.05;;;;;;;;;;5009039;28;20057;-46
2023/01/25 13:32:34;;;;;;;13.05;9.20;;;;;;;;;;5003777;28;20137;-45
2023/01/25 13:35:00;;;;;;;13.77;8.82;;;;;;;;;;5005913;28;20444;-42
2023/01/25 13:37:32;;;;;;;11.73;8.93;;;;;;;;;;5009026;28;20025;-45
2023/01/25 13:40:36;;;;;;;16.75;11.55;;;;;;;;;;5007485;28;20072;-44
2023/01/25 13:43:17;;;;;;;14.02;10.18;;;;;;;;;;5006850;28;20045;-42
2023/01/25 13:45:45;;;;;;;15.13;11.13;;;;;;;;;;5012078;28;20033;-44
2023/01/25 13:48:20;;;;;;;18.77;11.52;;;;;;;;;;5007905;28;20050;-44
2023/01/25 13:50:51;;;;;;;16.48;11.38;;;;;;;;;;5009020;28;20029;-43
2023/01/25 13:53:16;;;;;;;16.83;11.15;;;;;;;;;;5006968;28;20045;-41
2023/01/25 13:55:45;;;;;;;16.60;11.00;;;;;;;;;;5006625;28;20041;-42
2023/01/25 13:58:22;;;;;;;17.42;11.48;;;;;;;;;;5006900;28;20064;-46
2023/01/25 14:00:50;;;;;;;18.20;11.13;;;;;;;;;;5006660;28;20539;-47
2023/01/25 14:03:15;;;;;;;16.85;11.50;;;;;;;;;;5008516;28;20096;-46
2023/01/25 14:05:49;;;;;;;15.02;10.77;;;;;;;;;;5005904;28;20026;-49
2023/01/25 14:08:17;;;;;;;16.00;11.23;;;;;;;;;;5007019;28;20038;-47
2023/01/25 14:10:43;;;;;;;14.00;10.30;;;;;;;;;;5007854;28;20470;-48
2023/01/25 14:13:13;;;;;;;14.95;11.30;;;;;;;;;;5007465;28;20052;-46
2023/01/25 14:15:38;;;;;;;14.00;10.82;;;;;;;;;;5008949;28;20679;-48
2023/01/25 14:18:12;;;;;;;17.92;10.70;;;;;;;;;;5006185;28;20034;-51
2023/01/25 14:20:38;;;;;;;15.32;11.15;;;;;;;;;;5011640;28;20033;-48
2023/01/25 14:23:04;;;;;;;18.00;12.00;;;;;;;;;;5008052;28;20046;-44
2023/01/25 14:25:31;;;;;;;16.75;11.45;;;;;;;;;;5005030;28;20026;-47
2023/01/25 14:28:01;;;;;;;17.15;11.77;;;;;;;;;;5006714;28;20538;-48
2023/01/25 14:30:27;;;;;;;15.00;11.45;;;;;;;;;;5012819;28;20046;-45
2023/01/25 14:32:57;;;;;;;16.05;11.00;;;;;;;;;;5007957;28;20041;-44
2023/01/25 14:35:29;;;;;;;15.85;11.07;;;;;;;;;;5008027;28;20033;-49